sensor_id;sensor_type;location;lat;lon;timestamp;P1;durP1;ratioP1;P2;durP2;ratioP2
51146;SDS011;37207;53.060;18.726;2023-07-08T00:00:52;8.40;;;4.00;;
51146;SDS011;37207;53.060;18.726;2023-07-08T00:03:39;7.10;;;3.50;;
51146;SDS011;37207;53.060;18.726;2023-07-08T00:06:09;5.50;;;3.60;;
51146;SDS011;37207;53.060;18.726;2023-07-08T00:08:42;6.80;;;4.60;;
51146;SDS011;37207;53.060;18.726;2023-07-08T00:11:12;5.70;;;4.90;;
51146;SDS011;37207;53.060;18.726;2023-07-08T00:13:39;8.80;;;5.40;;
51146;SDS011;37207;53.060;18.726;2023-07-08T00:16:11;7.70;;;5.70;;
51146;SDS011;37207;53.060;18.726;2023-07-08T00:18:38;7.90;;;6.60;;
51146;SDS011;37207;53.060;18.726;2023-07-08T00:21:12;7.70;;;6.50;;
51146;SDS011;37207;53.060;18.726;2023-07-08T00:23:50;7.60;;;6.40;;
51146;SDS011;37207;53.060;18.726;2023-07-08T00:26:27;7.70;;;7.00;;
51146;SDS011;37207;53.060;18.726;2023-07-08T00:28:57;8.60;;;7.70;;
51146;SDS011;37207;53.060;18.726;2023-07-08T00:31:23;8.70;;;7.00;;
51146;SDS011;37207;53.060;18.726;2023-07-08T00:33:55;11.30;;;7.00;;
51146;SDS011;37207;53.060;18.726;2023-07-08T00:36:39;5.70;;;5.30;;
51146;SDS011;37207;53.060;18.726;2023-07-08T00:39:45;5.00;;;4.60;;
51146;SDS011;37207;53.060;18.726;2023-07-08T00:42:17;5.80;;;4.20;;
51146;SDS011;37207;53.060;18.726;2023-07-08T00:44:45;7.60;;;4.80;;
51146;SDS011;37207;53.060;18.726;2023-07-08T00:47:14;7.80;;;4.20;;
51146;SDS011;37207;53.060;18.726;2023-07-08T00:49:52;9.80;;;4.50;;
51146;SDS011;37207;53.060;18.726;2023-07-08T00:52:25;4.20;;;3.80;;
51146;SDS011;37207;53.060;18.726;2023-07-08T00:54:54;7.30;;;4.30;;
51146;SDS011;37207;53.060;18.726;2023-07-08T00:57:25;5.60;;;4.00;;
51146;SDS011;37207;53.060;18.726;2023-07-08T00:59:56;4.40;;;4.00;;
51146;SDS011;37207;53.060;18.726;2023-07-08T01:02:29;4.30;;;3.80;;
51146;SDS011;37207;53.060;18.726;2023-07-08T01:07:27;4.90;;;4.30;;
51146;SDS011;37207;53.060;18.726;2023-07-08T01:10:01;6.20;;;4.60;;
51146;SDS011;37207;53.060;18.726;2023-07-08T01:12:35;4.70;;;4.00;;
51146;SDS011;37207;53.060;18.726;2023-07-08T01:15:05;4.40;;;4.00;;
51146;SDS011;37207;53.060;18.726;2023-07-08T01:17:34;4.10;;;3.80;;
51146;SDS011;37207;53.060;18.726;2023-07-08T01:20:02;7.50;;;4.50;;
51146;SDS011;37207;53.060;18.726;2023-07-08T01:22:39;5.60;;;4.20;;
51146;SDS011;37207;53.060;18.726;2023-07-08T01:25:07;4.40;;;4.00;;
51146;SDS011;37207;53.060;18.726;2023-07-08T01:27:36;4.50;;;4.20;;
51146;SDS011;37207;53.060;18.726;2023-07-08T01:30:06;4.60;;;4.10;;
51146;SDS011;37207;53.060;18.726;2023-07-08T01:32:34;6.40;;;4.80;;
51146;SDS011;37207;53.060;18.726;2023-07-08T01:35:04;7.00;;;4.40;;
51146;SDS011;37207;53.060;18.726;2023-07-08T01:37:33;4.80;;;4.30;;
51146;SDS011;37207;53.060;18.726;2023-07-08T01:42:45;4.60;;;4.30;;
51146;SDS011;37207;53.060;18.726;2023-07-08T01:45:13;6.90;;;4.40;;
51146;SDS011;37207;53.060;18.726;2023-07-08T01:47:41;6.50;;;4.10;;
51146;SDS011;37207;53.060;18.726;2023-07-08T01:50:11;5.20;;;4.00;;
51146;SDS011;37207;53.060;18.726;2023-07-08T01:52:38;4.90;;;4.50;;
51146;SDS011;37207;53.060;18.726;2023-07-08T01:55:06;6.60;;;4.00;;
51146;SDS011;37207;53.060;18.726;2023-07-08T01:57:33;9.20;;;4.20;;
51146;SDS011;37207;53.060;18.726;2023-07-08T02:00:00;5.20;;;4.50;;
51146;SDS011;37207;53.060;18.726;2023-07-08T02:02:26;5.00;;;4.60;;
51146;SDS011;37207;53.060;18.726;2023-07-08T02:04:53;4.30;;;4.00;;
51146;SDS011;37207;53.060;18.726;2023-07-08T02:07:20;90.20;;;7.70;;
51146;SDS011;37207;53.060;18.726;2023-07-08T02:09:47;8.10;;;4.10;;
51146;SDS011;37207;53.060;18.726;2023-07-08T02:12:13;7.20;;;3.70;;
51146;SDS011;37207;53.060;18.726;2023-07-08T02:14:40;7.90;;;4.10;;
51146;SDS011;37207;53.060;18.726;2023-07-08T02:17:06;5.90;;;4.20;;
51146;SDS011;37207;53.060;18.726;2023-07-08T02:19:33;5.70;;;4.40;;
51146;SDS011;37207;53.060;18.726;2023-07-08T02:22:00;5.50;;;3.90;;
51146;SDS011;37207;53.060;18.726;2023-07-08T02:24:27;3.90;;;3.70;;
51146;SDS011;37207;53.060;18.726;2023-07-08T02:26:53;4.90;;;4.20;;
51146;SDS011;37207;53.060;18.726;2023-07-08T02:29:20;5.60;;;4.40;;
51146;SDS011;37207;53.060;18.726;2023-07-08T02:31:47;87.30;;;7.40;;
51146;SDS011;37207;53.060;18.726;2023-07-08T02:34:14;11.60;;;5.70;;
51146;SDS011;37207;53.060;18.726;2023-07-08T02:36:41;7.40;;;5.00;;
51146;SDS011;37207;53.060;18.726;2023-07-08T02:39:07;6.20;;;5.70;;
51146;SDS011;37207;53.060;18.726;2023-07-08T02:41:34;105.10;;;8.60;;
51146;SDS011;37207;53.060;18.726;2023-07-08T02:44:01;10.50;;;6.00;;
51146;SDS011;37207;53.060;18.726;2023-07-08T02:46:27;17.40;;;6.30;;
51146;SDS011;37207;53.060;18.726;2023-07-08T02:48:54;6.50;;;5.60;;
51146;SDS011;37207;53.060;18.726;2023-07-08T02:51:21;7.30;;;6.10;;
51146;SDS011;37207;53.060;18.726;2023-07-08T02:53:48;10.60;;;5.70;;
51146;SDS011;37207;53.060;18.726;2023-07-08T02:56:16;6.50;;;5.80;;
51146;SDS011;37207;53.060;18.726;2023-07-08T02:58:42;6.30;;;5.30;;
51146;SDS011;37207;53.060;18.726;2023-07-08T03:01:09;16.80;;;5.50;;
51146;SDS011;37207;53.060;18.726;2023-07-08T03:03:36;17.60;;;5.00;;
51146;SDS011;37207;53.060;18.726;2023-07-08T03:06:03;6.90;;;6.20;;
51146;SDS011;37207;53.060;18.726;2023-07-08T03:08:31;6.50;;;5.90;;
51146;SDS011;37207;53.060;18.726;2023-07-08T03:10:59;8.20;;;5.70;;
51146;SDS011;37207;53.060;18.726;2023-07-08T03:13:27;6.50;;;5.60;;
51146;SDS011;37207;53.060;18.726;2023-07-08T03:15:55;9.20;;;6.10;;
51146;SDS011;37207;53.060;18.726;2023-07-08T03:18:22;6.50;;;5.90;;
51146;SDS011;37207;53.060;18.726;2023-07-08T03:20:54;7.20;;;5.60;;
51146;SDS011;37207;53.060;18.726;2023-07-08T03:23:24;6.90;;;6.20;;
51146;SDS011;37207;53.060;18.726;2023-07-08T03:25:52;15.90;;;6.50;;
51146;SDS011;37207;53.060;18.726;2023-07-08T03:28:19;7.60;;;6.90;;
51146;SDS011;37207;53.060;18.726;2023-07-08T03:30:50;7.60;;;5.70;;
51146;SDS011;37207;53.060;18.726;2023-07-08T03:33:18;6.80;;;6.10;;
51146;SDS011;37207;53.060;18.726;2023-07-08T03:35:46;6.80;;;5.60;;
51146;SDS011;37207;53.060;18.726;2023-07-08T03:38:13;13.40;;;6.10;;
51146;SDS011;37207;53.060;18.726;2023-07-08T03:40:39;6.10;;;5.50;;
51146;SDS011;37207;53.060;18.726;2023-07-08T03:43:06;6.10;;;5.60;;
51146;SDS011;37207;53.060;18.726;2023-07-08T03:45:33;8.00;;;5.50;;
51146;SDS011;37207;53.060;18.726;2023-07-08T03:48:00;5.90;;;5.40;;
51146;SDS011;37207;53.060;18.726;2023-07-08T03:50:27;10.00;;;5.40;;
51146;SDS011;37207;53.060;18.726;2023-07-08T03:52:54;13.10;;;6.20;;
51146;SDS011;37207;53.060;18.726;2023-07-08T03:55:23;12.20;;;5.70;;
51146;SDS011;37207;53.060;18.726;2023-07-08T03:57:49;7.00;;;5.80;;
51146;SDS011;37207;53.060;18.726;2023-07-08T04:00:16;8.50;;;5.50;;
51146;SDS011;37207;53.060;18.726;2023-07-08T04:02:44;6.10;;;5.20;;
51146;SDS011;37207;53.060;18.726;2023-07-08T04:05:17;7.60;;;5.20;;
51146;SDS011;37207;53.060;18.726;2023-07-08T04:07:45;7.90;;;5.20;;
51146;SDS011;37207;53.060;18.726;2023-07-08T04:10:13;6.50;;;5.30;;
51146;SDS011;37207;53.060;18.726;2023-07-08T04:12:40;5.60;;;5.10;;
51146;SDS011;37207;53.060;18.726;2023-07-08T04:15:07;5.60;;;5.10;;
51146;SDS011;37207;53.060;18.726;2023-07-08T04:17:40;5.90;;;5.40;;
51146;SDS011;37207;53.060;18.726;2023-07-08T04:20:09;6.50;;;5.00;;
51146;SDS011;37207;53.060;18.726;2023-07-08T04:22:37;6.00;;;5.00;;
51146;SDS011;37207;53.060;18.726;2023-07-08T04:25:04;7.40;;;5.80;;
51146;SDS011;37207;53.060;18.726;2023-07-08T04:27:30;6.20;;;5.20;;
51146;SDS011;37207;53.060;18.726;2023-07-08T04:29:58;6.40;;;5.80;;
51146;SDS011;37207;53.060;18.726;2023-07-08T04:32:24;7.30;;;5.40;;
51146;SDS011;37207;53.060;18.726;2023-07-08T04:34:51;7.90;;;5.10;;
51146;SDS011;37207;53.060;18.726;2023-07-08T04:37:18;5.40;;;5.00;;
51146;SDS011;37207;53.060;18.726;2023-07-08T04:39:45;5.60;;;5.20;;
51146;SDS011;37207;53.060;18.726;2023-07-08T04:42:13;5.40;;;4.90;;
51146;SDS011;37207;53.060;18.726;2023-07-08T04:44:41;5.30;;;4.60;;
51146;SDS011;37207;53.060;18.726;2023-07-08T04:47:08;5.50;;;5.00;;
51146;SDS011;37207;53.060;18.726;2023-07-08T04:49:35;6.10;;;5.20;;
51146;SDS011;37207;53.060;18.726;2023-07-08T04:52:02;5.60;;;5.00;;
51146;SDS011;37207;53.060;18.726;2023-07-08T04:54:29;4.80;;;4.50;;
51146;SDS011;37207;53.060;18.726;2023-07-08T04:56:55;6.00;;;5.10;;
51146;SDS011;37207;53.060;18.726;2023-07-08T04:59:23;9.10;;;5.40;;
51146;SDS011;37207;53.060;18.726;2023-07-08T05:04:19;10.70;;;8.20;;
51146;SDS011;37207;53.060;18.726;2023-07-08T05:06:47;5.50;;;4.80;;
51146;SDS011;37207;53.060;18.726;2023-07-08T05:09:15;5.80;;;5.00;;
51146;SDS011;37207;53.060;18.726;2023-07-08T05:11:41;5.70;;;5.20;;
51146;SDS011;37207;53.060;18.726;2023-07-08T05:14:08;5.90;;;4.90;;
51146;SDS011;37207;53.060;18.726;2023-07-08T05:16:35;5.20;;;4.80;;
51146;SDS011;37207;53.060;18.726;2023-07-08T05:19:05;5.50;;;5.00;;
51146;SDS011;37207;53.060;18.726;2023-07-08T05:21:31;9.40;;;5.00;;
51146;SDS011;37207;53.060;18.726;2023-07-08T05:26:27;9.40;;;4.40;;
51146;SDS011;37207;53.060;18.726;2023-07-08T05:28:54;5.80;;;4.50;;
51146;SDS011;37207;53.060;18.726;2023-07-08T05:31:20;6.90;;;4.40;;
51146;SDS011;37207;53.060;18.726;2023-07-08T05:33:47;5.00;;;3.90;;
51146;SDS011;37207;53.060;18.726;2023-07-08T05:36:14;6.40;;;4.10;;
51146;SDS011;37207;53.060;18.726;2023-07-08T05:38:40;8.10;;;4.60;;
51146;SDS011;37207;53.060;18.726;2023-07-08T05:41:07;6.10;;;3.70;;
51146;SDS011;37207;53.060;18.726;2023-07-08T05:43:34;4.30;;;3.80;;
51146;SDS011;37207;53.060;18.726;2023-07-08T05:46:01;4.30;;;3.90;;
51146;SDS011;37207;53.060;18.726;2023-07-08T05:48:28;4.40;;;4.00;;
51146;SDS011;37207;53.060;18.726;2023-07-08T05:50:55;5.30;;;4.20;;
51146;SDS011;37207;53.060;18.726;2023-07-08T05:53:22;4.20;;;3.60;;
51146;SDS011;37207;53.060;18.726;2023-07-08T05:55:49;6.10;;;4.20;;
51146;SDS011;37207;53.060;18.726;2023-07-08T05:58:16;4.70;;;4.00;;
51146;SDS011;37207;53.060;18.726;2023-07-08T06:00:43;4.60;;;3.50;;
51146;SDS011;37207;53.060;18.726;2023-07-08T06:03:11;9.30;;;4.00;;
51146;SDS011;37207;53.060;18.726;2023-07-08T06:05:38;8.70;;;4.00;;
51146;SDS011;37207;53.060;18.726;2023-07-08T06:08:06;9.10;;;3.50;;
51146;SDS011;37207;53.060;18.726;2023-07-08T06:10:34;6.30;;;2.90;;
51146;SDS011;37207;53.060;18.726;2023-07-08T06:13:01;6.30;;;3.70;;
51146;SDS011;37207;53.060;18.726;2023-07-08T06:15:28;5.80;;;3.30;;
51146;SDS011;37207;53.060;18.726;2023-07-08T06:17:54;7.90;;;3.50;;
51146;SDS011;37207;53.060;18.726;2023-07-08T06:20:21;7.90;;;3.70;;
51146;SDS011;37207;53.060;18.726;2023-07-08T06:22:47;5.70;;;3.10;;
51146;SDS011;37207;53.060;18.726;2023-07-08T06:25:15;5.00;;;3.40;;
51146;SDS011;37207;53.060;18.726;2023-07-08T06:27:43;5.10;;;3.80;;
51146;SDS011;37207;53.060;18.726;2023-07-08T06:30:10;9.40;;;3.90;;
51146;SDS011;37207;53.060;18.726;2023-07-08T06:32:37;5.80;;;5.10;;
51146;SDS011;37207;53.060;18.726;2023-07-08T06:35:04;6.20;;;5.00;;
51146;SDS011;37207;53.060;18.726;2023-07-08T06:37:31;5.30;;;4.80;;
51146;SDS011;37207;53.060;18.726;2023-07-08T06:39:59;7.80;;;4.20;;
51146;SDS011;37207;53.060;18.726;2023-07-08T06:42:26;7.00;;;5.30;;
51146;SDS011;37207;53.060;18.726;2023-07-08T06:45:04;14.30;;;10.20;;
51146;SDS011;37207;53.060;18.726;2023-07-08T06:47:31;18.50;;;11.00;;
51146;SDS011;37207;53.060;18.726;2023-07-08T06:49:58;7.70;;;6.90;;
51146;SDS011;37207;53.060;18.726;2023-07-08T06:52:25;8.20;;;5.50;;
51146;SDS011;37207;53.060;18.726;2023-07-08T06:54:52;6.40;;;4.40;;
51146;SDS011;37207;53.060;18.726;2023-07-08T06:57:18;10.00;;;5.40;;
51146;SDS011;37207;53.060;18.726;2023-07-08T06:59:45;8.80;;;5.50;;
51146;SDS011;37207;53.060;18.726;2023-07-08T07:02:11;12.30;;;7.00;;
51146;SDS011;37207;53.060;18.726;2023-07-08T07:04:39;11.10;;;8.30;;
51146;SDS011;37207;53.060;18.726;2023-07-08T07:07:06;13.00;;;8.00;;
51146;SDS011;37207;53.060;18.726;2023-07-08T07:09:33;16.20;;;9.70;;
51146;SDS011;37207;53.060;18.726;2023-07-08T07:12:00;18.20;;;10.00;;
51146;SDS011;37207;53.060;18.726;2023-07-08T07:14:27;13.00;;;9.10;;
51146;SDS011;37207;53.060;18.726;2023-07-08T07:16:54;26.10;;;7.80;;
51146;SDS011;37207;53.060;18.726;2023-07-08T07:19:21;11.30;;;5.80;;
51146;SDS011;37207;53.060;18.726;2023-07-08T07:21:47;12.70;;;3.90;;
51146;SDS011;37207;53.060;18.726;2023-07-08T07:24:14;4.10;;;2.70;;
51146;SDS011;37207;53.060;18.726;2023-07-08T07:26:41;10.40;;;5.50;;
51146;SDS011;37207;53.060;18.726;2023-07-08T07:29:07;3.30;;;3.00;;
51146;SDS011;37207;53.060;18.726;2023-07-08T07:31:34;19.30;;;5.10;;
51146;SDS011;37207;53.060;18.726;2023-07-08T07:34:01;18.80;;;5.90;;
51146;SDS011;37207;53.060;18.726;2023-07-08T07:36:28;10.00;;;5.60;;
51146;SDS011;37207;53.060;18.726;2023-07-08T07:38:55;12.60;;;4.80;;
51146;SDS011;37207;53.060;18.726;2023-07-08T07:41:22;4.90;;;2.70;;
51146;SDS011;37207;53.060;18.726;2023-07-08T07:43:49;4.90;;;2.30;;
51146;SDS011;37207;53.060;18.726;2023-07-08T07:46:16;6.30;;;2.10;;
51146;SDS011;37207;53.060;18.726;2023-07-08T07:48:43;15.40;;;2.90;;
51146;SDS011;37207;53.060;18.726;2023-07-08T07:51:09;5.70;;;2.10;;
51146;SDS011;37207;53.060;18.726;2023-07-08T07:53:37;4.80;;;1.90;;
51146;SDS011;37207;53.060;18.726;2023-07-08T07:56:04;5.80;;;2.40;;
51146;SDS011;37207;53.060;18.726;2023-07-08T07:58:31;6.80;;;2.70;;
51146;SDS011;37207;53.060;18.726;2023-07-08T08:00:59;9.90;;;2.60;;
51146;SDS011;37207;53.060;18.726;2023-07-08T08:03:25;7.40;;;2.50;;
51146;SDS011;37207;53.060;18.726;2023-07-08T08:05:52;2.50;;;2.00;;
51146;SDS011;37207;53.060;18.726;2023-07-08T08:08:18;5.70;;;4.50;;
51146;SDS011;37207;53.060;18.726;2023-07-08T08:10:45;3.80;;;3.40;;
51146;SDS011;37207;53.060;18.726;2023-07-08T08:13:12;5.10;;;2.80;;
51146;SDS011;37207;53.060;18.726;2023-07-08T08:15:38;2.90;;;2.70;;
51146;SDS011;37207;53.060;18.726;2023-07-08T08:18:05;3.80;;;3.30;;
51146;SDS011;37207;53.060;18.726;2023-07-08T08:20:32;3.50;;;3.10;;
51146;SDS011;37207;53.060;18.726;2023-07-08T08:22:59;9.90;;;2.50;;
51146;SDS011;37207;53.060;18.726;2023-07-08T08:25:25;2.30;;;1.90;;
51146;SDS011;37207;53.060;18.726;2023-07-08T08:27:52;3.40;;;2.60;;
51146;SDS011;37207;53.060;18.726;2023-07-08T08:30:19;2.60;;;2.20;;
51146;SDS011;37207;53.060;18.726;2023-07-08T08:32:46;2.90;;;2.20;;
51146;SDS011;37207;53.060;18.726;2023-07-08T08:35:12;3.60;;;2.10;;
51146;SDS011;37207;53.060;18.726;2023-07-08T08:37:39;5.10;;;1.80;;
51146;SDS011;37207;53.060;18.726;2023-07-08T08:40:06;2.20;;;1.60;;
51146;SDS011;37207;53.060;18.726;2023-07-08T08:42:41;7.10;;;1.80;;
51146;SDS011;37207;53.060;18.726;2023-07-08T08:45:11;5.20;;;1.70;;
51146;SDS011;37207;53.060;18.726;2023-07-08T08:47:44;4.60;;;1.60;;
51146;SDS011;37207;53.060;18.726;2023-07-08T08:50:26;3.40;;;2.00;;
51146;SDS011;37207;53.060;18.726;2023-07-08T08:52:57;1.90;;;1.70;;
51146;SDS011;37207;53.060;18.726;2023-07-08T08:55:27;5.50;;;1.80;;
51146;SDS011;37207;53.060;18.726;2023-07-08T09:00:26;5.30;;;1.80;;
51146;SDS011;37207;53.060;18.726;2023-07-08T09:03:11;2.70;;;1.60;;
51146;SDS011;37207;53.060;18.726;2023-07-08T09:05:44;1.60;;;1.50;;
51146;SDS011;37207;53.060;18.726;2023-07-08T09:10:45;5.60;;;1.60;;
51146;SDS011;37207;53.060;18.726;2023-07-08T09:13:18;2.90;;;1.70;;
51146;SDS011;37207;53.060;18.726;2023-07-08T09:15:51;2.90;;;1.70;;
51146;SDS011;37207;53.060;18.726;2023-07-08T09:18:30;2.10;;;1.80;;
51146;SDS011;37207;53.060;18.726;2023-07-08T09:21:18;4.90;;;1.60;;
51146;SDS011;37207;53.060;18.726;2023-07-08T09:23:49;7.00;;;2.20;;
51146;SDS011;37207;53.060;18.726;2023-07-08T09:26:20;5.40;;;1.70;;
51146;SDS011;37207;53.060;18.726;2023-07-08T09:28:50;1.80;;;1.70;;
51146;SDS011;37207;53.060;18.726;2023-07-08T09:31:26;2.40;;;1.50;;
51146;SDS011;37207;53.060;18.726;2023-07-08T09:34:06;4.70;;;1.80;;
51146;SDS011;37207;53.060;18.726;2023-07-08T09:36:38;2.10;;;1.50;;
51146;SDS011;37207;53.060;18.726;2023-07-08T09:39:11;1.50;;;1.40;;
51146;SDS011;37207;53.060;18.726;2023-07-08T09:41:40;4.00;;;1.50;;
51146;SDS011;37207;53.060;18.726;2023-07-08T09:46:42;6.70;;;1.50;;
51146;SDS011;37207;53.060;18.726;2023-07-08T09:49:15;16.70;;;2.30;;
51146;SDS011;37207;53.060;18.726;2023-07-08T09:51:44;2.00;;;1.30;;
51146;SDS011;37207;53.060;18.726;2023-07-08T09:54:12;4.20;;;1.50;;
51146;SDS011;37207;53.060;18.726;2023-07-08T09:56:40;3.80;;;1.70;;
51146;SDS011;37207;53.060;18.726;2023-07-08T09:59:12;2.10;;;1.40;;
51146;SDS011;37207;53.060;18.726;2023-07-08T10:01:41;1.70;;;1.30;;
51146;SDS011;37207;53.060;18.726;2023-07-08T10:04:08;45.60;;;2.50;;
51146;SDS011;37207;53.060;18.726;2023-07-08T10:06:35;2.40;;;1.60;;
51146;SDS011;37207;53.060;18.726;2023-07-08T10:09:08;5.20;;;1.60;;
51146;SDS011;37207;53.060;18.726;2023-07-08T10:11:44;3.80;;;1.70;;
51146;SDS011;37207;53.060;18.726;2023-07-08T10:14:25;1.60;;;1.40;;
51146;SDS011;37207;53.060;18.726;2023-07-08T10:16:55;1.60;;;1.50;;
51146;SDS011;37207;53.060;18.726;2023-07-08T10:19:22;2.40;;;1.60;;
51146;SDS011;37207;53.060;18.726;2023-07-08T10:21:58;3.70;;;1.50;;
51146;SDS011;37207;53.060;18.726;2023-07-08T10:30:11;3.50;;;1.30;;
51146;SDS011;37207;53.060;18.726;2023-07-08T10:35:44;2.20;;;1.40;;
51146;SDS011;37207;53.060;18.726;2023-07-08T10:44:04;7.60;;;1.80;;
51146;SDS011;37207;53.060;18.726;2023-07-08T10:52:39;9.00;;;1.80;;
51146;SDS011;37207;53.060;18.726;2023-07-08T10:55:28;17.10;;;2.40;;
51146;SDS011;37207;53.060;18.726;2023-07-08T10:58:07;13.10;;;2.00;;
51146;SDS011;37207;53.060;18.726;2023-07-08T11:00:51;67.30;;;3.70;;
51146;SDS011;37207;53.060;18.726;2023-07-08T11:06:18;2.60;;;1.70;;
51146;SDS011;37207;53.060;18.726;2023-07-08T11:08:52;2.30;;;1.80;;
51146;SDS011;37207;53.060;18.726;2023-07-08T11:14:41;6.30;;;2.50;;
51146;SDS011;37207;53.060;18.726;2023-07-08T11:17:10;33.80;;;4.70;;
51146;SDS011;37207;53.060;18.726;2023-07-08T11:19:57;13.40;;;2.90;;
51146;SDS011;37207;53.060;18.726;2023-07-08T11:22:36;4.70;;;2.30;;
51146;SDS011;37207;53.060;18.726;2023-07-08T11:25:16;1.80;;;1.70;;
51146;SDS011;37207;53.060;18.726;2023-07-08T11:27:44;2.20;;;1.80;;
51146;SDS011;37207;53.060;18.726;2023-07-08T11:30:16;5.90;;;1.70;;
51146;SDS011;37207;53.060;18.726;2023-07-08T11:32:48;4.40;;;1.70;;
51146;SDS011;37207;53.060;18.726;2023-07-08T11:35:41;10.10;;;1.90;;
51146;SDS011;37207;53.060;18.726;2023-07-08T11:38:14;4.70;;;1.90;;
51146;SDS011;37207;53.060;18.726;2023-07-08T11:41:17;1.70;;;1.50;;
51146;SDS011;37207;53.060;18.726;2023-07-08T11:43:43;2.30;;;1.50;;
51146;SDS011;37207;53.060;18.726;2023-07-08T11:46:15;13.30;;;1.60;;
51146;SDS011;37207;53.060;18.726;2023-07-08T11:48:50;2.90;;;1.40;;
51146;SDS011;37207;53.060;18.726;2023-07-08T11:51:20;4.50;;;1.50;;
51146;SDS011;37207;53.060;18.726;2023-07-08T11:53:58;3.70;;;1.30;;
51146;SDS011;37207;53.060;18.726;2023-07-08T11:56:27;4.10;;;1.40;;
51146;SDS011;37207;53.060;18.726;2023-07-08T11:58:59;2.10;;;1.50;;
51146;SDS011;37207;53.060;18.726;2023-07-08T12:01:51;4.70;;;1.80;;
51146;SDS011;37207;53.060;18.726;2023-07-08T12:04:31;37.10;;;3.00;;
51146;SDS011;37207;53.060;18.726;2023-07-08T12:09:46;5.80;;;1.40;;
51146;SDS011;37207;53.060;18.726;2023-07-08T12:12:20;2.10;;;1.50;;
51146;SDS011;37207;53.060;18.726;2023-07-08T12:14:53;3.40;;;1.60;;
51146;SDS011;37207;53.060;18.726;2023-07-08T12:17:25;4.60;;;1.40;;
51146;SDS011;37207;53.060;18.726;2023-07-08T12:19:52;3.80;;;1.60;;
51146;SDS011;37207;53.060;18.726;2023-07-08T12:22:22;2.90;;;1.60;;
51146;SDS011;37207;53.060;18.726;2023-07-08T12:24:50;2.20;;;1.50;;
51146;SDS011;37207;53.060;18.726;2023-07-08T12:28:15;2.10;;;1.70;;
51146;SDS011;37207;53.060;18.726;2023-07-08T12:30:44;1.70;;;1.60;;
51146;SDS011;37207;53.060;18.726;2023-07-08T12:33:27;3.20;;;1.60;;
51146;SDS011;37207;53.060;18.726;2023-07-08T12:35:57;8.70;;;1.70;;
51146;SDS011;37207;53.060;18.726;2023-07-08T12:41:03;3.70;;;1.40;;
51146;SDS011;37207;53.060;18.726;2023-07-08T12:43:35;3.80;;;1.80;;
51146;SDS011;37207;53.060;18.726;2023-07-08T12:46:02;1.90;;;1.60;;
51146;SDS011;37207;53.060;18.726;2023-07-08T12:48:33;1.90;;;1.70;;
51146;SDS011;37207;53.060;18.726;2023-07-08T12:51:02;1.70;;;1.60;;
51146;SDS011;37207;53.060;18.726;2023-07-08T12:53:29;71.00;;;3.90;;
51146;SDS011;37207;53.060;18.726;2023-07-08T12:55:56;2.40;;;1.50;;
51146;SDS011;37207;53.060;18.726;2023-07-08T12:58:25;7.60;;;1.90;;
51146;SDS011;37207;53.060;18.726;2023-07-08T13:00:55;5.80;;;2.40;;
51146;SDS011;37207;53.060;18.726;2023-07-08T13:03:24;8.50;;;2.50;;
51146;SDS011;37207;53.060;18.726;2023-07-08T13:05:54;2.30;;;2.10;;
51146;SDS011;37207;53.060;18.726;2023-07-08T13:08:24;4.80;;;2.00;;
51146;SDS011;37207;53.060;18.726;2023-07-08T13:10:57;9.40;;;2.20;;
51146;SDS011;37207;53.060;18.726;2023-07-08T13:13:26;8.60;;;1.90;;
51146;SDS011;37207;53.060;18.726;2023-07-08T13:15:56;2.30;;;2.10;;
51146;SDS011;37207;53.060;18.726;2023-07-08T13:18:30;2.00;;;1.70;;
51146;SDS011;37207;53.060;18.726;2023-07-08T13:20:59;2.00;;;1.90;;
51146;SDS011;37207;53.060;18.726;2023-07-08T13:23:27;10.30;;;1.80;;
51146;SDS011;37207;53.060;18.726;2023-07-08T13:25:55;1.80;;;1.70;;
51146;SDS011;37207;53.060;18.726;2023-07-08T13:28:26;4.90;;;1.80;;
51146;SDS011;37207;53.060;18.726;2023-07-08T13:31:03;5.40;;;1.70;;
51146;SDS011;37207;53.060;18.726;2023-07-08T13:33:51;3.20;;;1.80;;
51146;SDS011;37207;53.060;18.726;2023-07-08T13:36:21;5.90;;;2.50;;
51146;SDS011;37207;53.060;18.726;2023-07-08T13:38:54;2.20;;;1.60;;
51146;SDS011;37207;53.060;18.726;2023-07-08T13:41:22;2.80;;;1.80;;
51146;SDS011;37207;53.060;18.726;2023-07-08T13:43:50;3.10;;;1.80;;
51146;SDS011;37207;53.060;18.726;2023-07-08T13:49:14;2.00;;;1.80;;
51146;SDS011;37207;53.060;18.726;2023-07-08T13:51:45;10.00;;;1.90;;
51146;SDS011;37207;53.060;18.726;2023-07-08T13:54:14;6.60;;;2.20;;
51146;SDS011;37207;53.060;18.726;2023-07-08T13:56:52;2.00;;;1.90;;
51146;SDS011;37207;53.060;18.726;2023-07-08T13:59:23;4.20;;;1.70;;
51146;SDS011;37207;53.060;18.726;2023-07-08T14:01:53;2.70;;;1.40;;
51146;SDS011;37207;53.060;18.726;2023-07-08T14:04:30;8.20;;;2.00;;
51146;SDS011;37207;53.060;18.726;2023-07-08T14:06:59;3.10;;;1.70;;
51146;SDS011;37207;53.060;18.726;2023-07-08T14:09:26;2.30;;;2.10;;
51146;SDS011;37207;53.060;18.726;2023-07-08T14:11:53;38.70;;;3.20;;
51146;SDS011;37207;53.060;18.726;2023-07-08T14:14:20;6.10;;;2.10;;
51146;SDS011;37207;53.060;18.726;2023-07-08T14:16:50;9.30;;;1.90;;
51146;SDS011;37207;53.060;18.726;2023-07-08T14:19:26;6.80;;;2.00;;
51146;SDS011;37207;53.060;18.726;2023-07-08T14:21:56;10.20;;;2.30;;
51146;SDS011;37207;53.060;18.726;2023-07-08T14:24:25;2.20;;;1.80;;
51146;SDS011;37207;53.060;18.726;2023-07-08T14:26:52;3.70;;;1.40;;
51146;SDS011;37207;53.060;18.726;2023-07-08T14:33:15;8.00;;;2.00;;
51146;SDS011;37207;53.060;18.726;2023-07-08T14:35:42;64.40;;;4.60;;
51146;SDS011;37207;53.060;18.726;2023-07-08T14:38:09;3.50;;;1.90;;
51146;SDS011;37207;53.060;18.726;2023-07-08T14:40:39;20.10;;;2.80;;
51146;SDS011;37207;53.060;18.726;2023-07-08T14:43:15;2.50;;;1.80;;
51146;SDS011;37207;53.060;18.726;2023-07-08T14:45:49;2.60;;;1.50;;
51146;SDS011;37207;53.060;18.726;2023-07-08T14:48:19;2.40;;;1.90;;
51146;SDS011;37207;53.060;18.726;2023-07-08T14:50:46;25.80;;;3.00;;
51146;SDS011;37207;53.060;18.726;2023-07-08T14:53:14;1.90;;;1.80;;
51146;SDS011;37207;53.060;18.726;2023-07-08T14:55:42;11.10;;;2.10;;
51146;SDS011;37207;53.060;18.726;2023-07-08T14:58:15;2.10;;;1.90;;
51146;SDS011;37207;53.060;18.726;2023-07-08T15:00:49;3.30;;;1.80;;
51146;SDS011;37207;53.060;18.726;2023-07-08T15:03:17;16.00;;;2.50;;
51146;SDS011;37207;53.060;18.726;2023-07-08T15:05:44;2.10;;;1.90;;
51146;SDS011;37207;53.060;18.726;2023-07-08T15:08:11;5.60;;;2.00;;
51146;SDS011;37207;53.060;18.726;2023-07-08T15:10:38;6.50;;;2.20;;
51146;SDS011;37207;53.060;18.726;2023-07-08T15:13:10;3.00;;;2.00;;
51146;SDS011;37207;53.060;18.726;2023-07-08T15:15:37;3.60;;;1.60;;
51146;SDS011;37207;53.060;18.726;2023-07-08T15:18:10;1.80;;;1.70;;
51146;SDS011;37207;53.060;18.726;2023-07-08T15:20:39;24.40;;;2.90;;
51146;SDS011;37207;53.060;18.726;2023-07-08T15:23:06;1.90;;;1.70;;
51146;SDS011;37207;53.060;18.726;2023-07-08T15:25:34;3.80;;;2.00;;
51146;SDS011;37207;53.060;18.726;2023-07-08T15:30:30;14.20;;;2.40;;
51146;SDS011;37207;53.060;18.726;2023-07-08T15:32:57;2.30;;;1.50;;
51146;SDS011;37207;53.060;18.726;2023-07-08T15:35:25;16.30;;;2.40;;
51146;SDS011;37207;53.060;18.726;2023-07-08T15:37:58;5.90;;;1.90;;
51146;SDS011;37207;53.060;18.726;2023-07-08T15:40:25;7.00;;;1.90;;
51146;SDS011;37207;53.060;18.726;2023-07-08T15:42:56;5.90;;;2.20;;
51146;SDS011;37207;53.060;18.726;2023-07-08T15:47:53;25.70;;;2.60;;
51146;SDS011;37207;53.060;18.726;2023-07-08T15:50:21;20.70;;;3.00;;